M I D A S
Marine Information and Data Acquisition System
Tripno 651 of the Zeeleeuw from 2004-02-18 07:12:45 to 2004-02-18 11:52:08
Back to CruiseResearch ActivitiesStationsMapUnderway DataData graphs

EquipmentUnitsComments
TimeDGPSUTC
LatitudeDGPSDM.mWGS84
LongitudeDGPSDM.mWGS84
SpeedMeteo Stationm/sRelative wind speed
DirectionMeteo StationdegRelative wind direction
TemperatureMeteo Stationdeg CelciusAir temperature
PressureMeteo StationPaAtmospheric pressure
HumidityMeteo Station%Relative humidity
Missing or incorrect values are displayed as -999
Metereological data collected by the RV Zeeleeuw from 2004-02-18 07:12:45 to 2004-02-18 11:52:08
                                                                                    Next 1000 lines
Time Latitude Longitude Speed Direction Temperature Pressure Humidity
2004-02-18 07:12:54 51°13.592 2°56.107 3.8 261 6.5 102820 72
2004-02-18 07:12:59 51°13.592 2°56.107 3 248 6.6 102820 72
2004-02-18 07:13:04 51°13.592 2°56.107 3 237 6.6 102820 72
2004-02-18 07:13:09 51°13.592 2°56.107 2.9 265 6.6 102820 72
2004-02-18 07:13:14 51°13.592 2°56.107 3.2 254 6.6 102820 72
2004-02-18 07:13:19 51°13.592 2°56.107 3.3 267 6.6 102820 72
2004-02-18 07:13:24 51°13.591 2°56.107 5.1 278 6.6 102820 72
2004-02-18 07:13:28 51°13.591 2°56.107 3.1 301 6.6 102820 72
2004-02-18 07:13:34 51°13.591 2°56.106 2.3 245 6.6 102820 72
2004-02-18 07:13:38 51°13.591 2°56.106 5.7 264 6.6 102820 72
2004-02-18 07:13:44 51°13.592 2°56.106 6.8 267 6.6 102820 72
2004-02-18 07:13:48 51°13.592 2°56.105 4.1 266 6.6 102820 72
2004-02-18 07:13:54 51°13.592 2°56.102 3.9 248 6.6 102820 72
2004-02-18 07:13:59 51°13.593 2°56.098 4.2 245 6.6 102820 72
2004-02-18 07:14:04 51°13.594 2°56.094 4.8 266 6.6 102820 72
2004-02-18 07:14:10 51°13.596 2°56.088 4.4 239 6.6 102820 72
2004-02-18 07:14:14 51°13.597 2°56.083 4.3 250 6.6 102820 72
2004-02-18 07:14:20 51°13.599 2°56.075 4.1 258 6.6 102820 72
2004-02-18 07:14:25 51°13.601 2°56.068 7.6 241 6.6 102820 72
2004-02-18 07:14:30 51°13.603 2°56.061 7.1 246 6.6 102830 72
2004-02-18 07:14:34 51°13.605 2°56.055 5.3 253 6.6 102830 72
2004-02-18 07:14:40 51°13.607 2°56.045 7.3 241 6.6 102820 72
2004-02-18 07:14:45 51°13.609 2°56.037 6.4 248 6.6 102820 72
2004-02-18 07:14:50 51°13.612 2°56.028 8 245 6.6 102830 71
2004-02-18 07:14:54 51°13.614 2°56.021 7.4 242 6.6 102830 71
2004-02-18 07:15:00 51°13.618 2°56.011 6.9 245 6.6 102820 71
2004-02-18 07:15:05 51°13.621 2°56.002 5.3 230 6.6 102820 71
2004-02-18 07:15:10 51°13.625 2°55.994 5.5 243 6.6 102830 71
2004-02-18 07:15:14 51°13.628 2°55.987 5.3 242 6.6 102830 71
2004-02-18 07:15:20 51°13.632 2°55.977 5.5 266 6.6 102840 70
2004-02-18 07:15:25 51°13.636 2°55.97 4.1 224 6.6 102840 70
2004-02-18 07:15:30 51°13.64 2°55.964 4 229 6.6 102830 70
2004-02-18 07:15:34 51°13.642 2°55.959 4.1 209 6.6 102830 70
2004-02-18 07:15:39 51°13.644 2°55.955 4.1 210 6.5 102840 70
2004-02-18 07:15:44 51°13.646 2°55.952 6.2 258 6.5 102840 70
2004-02-18 07:15:49 51°13.648 2°55.949 6.4 241 6.6 102830 70
2004-02-18 07:15:54 51°13.65 2°55.944 4.8 248 6.6 102830 70
2004-02-18 07:15:59 51°13.652 2°55.94 7.1 230 6.6 102820 70
2004-02-18 07:16:04 51°13.654 2°55.934 5 248 6.6 102820 70
2004-02-18 07:16:10 51°13.657 2°55.927 4.6 237 6.6 102830 70
2004-02-18 07:16:14 51°13.658 2°55.922 6.3 236 6.6 102830 70
2004-02-18 07:16:20 51°13.661 2°55.914 4.9 237 6.6 102840 69
2004-02-18 07:16:25 51°13.663 2°55.907 4.1 217 6.6 102840 69
2004-02-18 07:16:30 51°13.666 2°55.899 3.8 207 6.6 102830 69
2004-02-18 07:16:34 51°13.667 2°55.893 4.2 238 6.6 102830 69
2004-02-18 07:16:40 51°13.67 2°55.883 4 249 6.6 102820 69
2004-02-18 07:16:45 51°13.671 2°55.874 4.1 239 6.6 102820 69
2004-02-18 07:16:50 51°13.673 2°55.865 5.3 241 6.6 102820 69
2004-02-18 07:16:54 51°13.674 2°55.858 4.8 246 6.6 102820 69
2004-02-18 07:17:00 51°13.676 2°55.847 3.9 258 6.6 102820 69
2004-02-18 07:17:05 51°13.678 2°55.837 5.7 233 6.6 102820 69
2004-02-18 07:17:10 51°13.679 2°55.827 4.2 245 6.6 102820 69
2004-02-18 07:17:15 51°13.68 2°55.817 8.3 231 6.6 102820 69
2004-02-18 07:17:20 51°13.682 2°55.807 8.6 237 6.6 102820 69
2004-02-18 07:17:25 51°13.683 2°55.797 8.6 238 6.6 102820 69
2004-02-18 07:17:30 51°13.684 2°55.787 6.5 262 6.6 102830 69
2004-02-18 07:17:34 51°13.686 2°55.779 7.8 226 6.6 102830 69
2004-02-18 07:17:40 51°13.687 2°55.767 5 255 6.6 102830 69
2004-02-18 07:17:45 51°13.688 2°55.76 4.2 233 6.6 102830 69
2004-02-18 07:17:50 51°13.688 2°55.755 6.3 246 6.6 102820 69
2004-02-18 07:17:54 51°13.689 2°55.753 6.4 274 6.6 102820 69
2004-02-18 07:17:58 51°13.689 2°55.753 6 290 6.6 102830 69
2004-02-18 07:18:04 51°13.688 2°55.755 6.9 300 6.6 102830 69
2004-02-18 07:18:09 51°13.689 2°55.759 7.4 301 6.6 102830 69
2004-02-18 07:18:14 51°13.69 2°55.763 7 230 6.6 102830 69
2004-02-18 07:18:19 51°13.691 2°55.769 6.8 348 6.6 102830 69
2004-02-18 07:18:24 51°13.693 2°55.774 6.6 321 6.6 102830 69
2004-02-18 07:18:28 51°13.694 2°55.778 7.5 319 6.6 102820 69
2004-02-18 07:18:34 51°13.695 2°55.782 5.8 322 6.6 102820 69
2004-02-18 07:18:40 51°13.696 2°55.783 4.9 229 6.6 102820 69
2004-02-18 07:18:44 51°13.696 2°55.783 4.1 317 6.6 102820 69
2004-02-18 07:18:49 51°13.695 2°55.782 4.1 308 6.6 102820 69
2004-02-18 07:18:54 51°13.694 2°55.78 3.4 315 6.6 102820 69
2004-02-18 07:18:59 51°13.692 2°55.777 4.7 294 6.6 102830 69
2004-02-18 07:19:04 51°13.691 2°55.774 4 306 6.6 102830 69
2004-02-18 07:19:10 51°13.689 2°55.77 5.3 309 6.6 102820 69
2004-02-18 07:19:14 51°13.688 2°55.77 5.5 319 6.6 102820 69
2004-02-18 07:19:20 51°13.689 2°55.77 4.8 337 6.6 102820 69
2004-02-18 07:19:25 51°13.69 2°55.772 4.5 340 6.6 102820 69
2004-02-18 07:19:30 51°13.693 2°55.773 4.9 3 6.6 102820 69
2004-02-18 07:19:34 51°13.696 2°55.774 4.3 5 6.6 102820 69
2004-02-18 07:19:40 51°13.701 2°55.774 6 1 6.6 102820 69
2004-02-18 07:19:45 51°13.707 2°55.773 5.6 12 6.6 102820 69
2004-02-18 07:19:49 51°13.712 2°55.77 6.7 19 6.6 102820 69
2004-02-18 07:19:54 51°13.718 2°55.765 6.6 26 6.6 102820 69
2004-02-18 07:19:58 51°13.722 2°55.76 6.9 20 6.6 102810 69
2004-02-18 07:20:04 51°13.728 2°55.752 9.4 33 6.6 102810 69
2004-02-18 07:20:08 51°13.733 2°55.747 11.5 31 6.6 102820 69
2004-02-18 07:20:14 51°13.739 2°55.738 8.6 37 6.6 102820 69
2004-02-18 07:20:18 51°13.744 2°55.732 8.9 27 6.6 102810 69
2004-02-18 07:20:24 51°13.751 2°55.722 8 43 6.6 102810 69
2004-02-18 07:20:28 51°13.756 2°55.715 5 39 6.6 102810 69
2004-02-18 07:20:34 51°13.764 2°55.705 6.4 16 6.6 102810 69
2004-02-18 07:20:38 51°13.77 2°55.697 6.5 37 6.5 102810 69
2004-02-18 07:20:44 51°13.778 2°55.687 8.5 32 6.5 102810 69
2004-02-18 07:20:49 51°13.785 2°55.678 8.9 5 6.6 102800 69
2004-02-18 07:20:54 51°13.793 2°55.669 7.9 29 6.6 102800 69
2004-02-18 07:20:58 51°13.799 2°55.662 9.5 41 6.6 102800 69
2004-02-18 07:21:04 51°13.809 2°55.651 10.2 20 6.6 102800 69
2004-02-18 07:21:09 51°13.817 2°55.643 11.5 30 6.6 102810 69
2004-02-18 07:21:14 51°13.825 2°55.635 11.1 33 6.6 102810 69
2004-02-18 07:21:18 51°13.832 2°55.628 9.8 38 6.6 102810 69
2004-02-18 07:21:24 51°13.843 2°55.619 9.8 26 6.6 102810 69
2004-02-18 07:21:29 51°13.851 2°55.612 11 29 6.6 102810 69
2004-02-18 07:21:34 51°13.861 2°55.605 11.5 30 6.6 102810 69
2004-02-18 07:21:39 51°13.87 2°55.597 9.4 28 6.6 102800 69
2004-02-18 07:21:44 51°13.879 2°55.59 8.1 28 6.6 102800 69
2004-02-18 07:21:49 51°13.888 2°55.583 8.5 26 6.6 102800 69
2004-02-18 07:21:54 51°13.898 2°55.576 8 32 6.6 102800 69
2004-02-18 07:21:59 51°13.908 2°55.569 10.2 25 6.6 102800 69
2004-02-18 07:22:04 51°13.918 2°55.562 11.5 32 6.6 102800 69
2004-02-18 07:22:09 51°13.928 2°55.555 11.6 23 6.6 102800 69
2004-02-18 07:22:14 51°13.939 2°55.548 10.3 34 6.6 102800 69
2004-02-18 07:22:18 51°13.947 2°55.542 10.6 24 6.7 102800 70
2004-02-18 07:22:24 51°13.96 2°55.533 11.9 30 6.7 102800 70
2004-02-18 07:22:29 51°13.971 2°55.525 11.8 30 6.6 102800 70
2004-02-18 07:22:34 51°13.982 2°55.517 11.7 30 6.6 102800 70
2004-02-18 07:22:39 51°13.993 2°55.509 11 27 6.6 102790 70
2004-02-18 07:22:44 51°14.004 2°55.501 10.7 33 6.6 102790 70
2004-02-18 07:22:48 51°14.013 2°55.494 11.1 32 6.6 102790 70
2004-02-18 07:22:54 51°14.026 2°55.484 10.2 25 6.6 102790 70
2004-02-18 07:22:58 51°14.035 2°55.478 11.5 26 6.6 102790 70
2004-02-18 07:23:04 51°14.049 2°55.469 12.3 33 6.6 102790 70
2004-02-18 07:23:09 51°14.06 2°55.461 11 32 6.6 102790 70
2004-02-18 07:23:14 51°14.071 2°55.452 12.9 29 6.6 102790 70
2004-02-18 07:23:20 51°14.085 2°55.443 12.7 26 6.6 102790 70
2004-02-18 07:23:24 51°14.095 2°55.436 12.5 27 6.6 102790 70
2004-02-18 07:23:29 51°14.107 2°55.428 11.2 24 6.6 102790 70
2004-02-18 07:23:34 51°14.119 2°55.42 11.2 23 6.6 102790 70
2004-02-18 07:23:39 51°14.131 2°55.411 11.1 25 6.6 102780 70
2004-02-18 07:23:44 51°14.143 2°55.403 12.4 27 6.6 102780 70
2004-02-18 07:23:49 51°14.155 2°55.393 10.8 23 6.6 102780 70
2004-02-18 07:23:54 51°14.167 2°55.384 11.4 24 6.6 102780 70
2004-02-18 07:23:58 51°14.176 2°55.375 12.1 28 6.6 102780 70
2004-02-18 07:24:04 51°14.191 2°55.361 11.2 34 6.6 102780 70
2004-02-18 07:24:09 51°14.202 2°55.349 12.5 33 6.6 102780 71
2004-02-18 07:24:14 51°14.214 2°55.336 13.4 41 6.6 102780 71
2004-02-18 07:24:19 51°14.225 2°55.322 11 26 6.6 102780 71
2004-02-18 07:24:24 51°14.236 2°55.307 11.7 35 6.6 102780 71
2004-02-18 07:24:29 51°14.247 2°55.291 9.7 37 6.6 102790 71
2004-02-18 07:24:34 51°14.257 2°55.275 9.8 39 6.6 102790 71
2004-02-18 07:24:38 51°14.265 2°55.261 11.6 44 6.6 102780 71
2004-02-18 07:24:44 51°14.277 2°55.239 10.3 40 6.6 102780 71
2004-02-18 07:24:48 51°14.286 2°55.224 12.6 37 6.6 102780 71
2004-02-18 07:24:54 51°14.298 2°55.2 11.1 33 6.6 102780 71
2004-02-18 07:24:58 51°14.306 2°55.185 11.4 44 6.6 102790 71
2004-02-18 07:25:04 51°14.317 2°55.16 11.7 48 6.6 102790 71
2004-02-18 07:25:09 51°14.327 2°55.139 9.5 35 6.6 102780 71
2004-02-18 07:25:14 51°14.337 2°55.119 10.8 44 6.6 102780 71
2004-02-18 07:25:19 51°14.346 2°55.097 13.2 54 6.6 102780 71
2004-02-18 07:25:24 51°14.355 2°55.075 13.2 55 6.6 102780 71
2004-02-18 07:25:29 51°14.364 2°55.053 12 56 6.6 102780 71
2004-02-18 07:25:34 51°14.372 2°55.029 12.5 57 6.6 102780 71
2004-02-18 07:25:40 51°14.379 2°55 11.1 61 6.6 102780 71
2004-02-18 07:25:44 51°14.384 2°54.979 12.6 62 6.6 102780 71
2004-02-18 07:25:49 51°14.388 2°54.953 10.7 65 6.6 102770 71
2004-02-18 07:25:54 51°14.392 2°54.927 10.9 71 6.6 102770 71
2004-02-18 07:25:58 51°14.394 2°54.906 10 65 6.6 102750 71
2004-02-18 07:26:04 51°14.397 2°54.873 7.6 72 6.6 102750 71
2004-02-18 07:26:09 51°14.4 2°54.845 7.8 65 6.6 102760 71
2004-02-18 07:26:14 51°14.4 2°54.818 11.8 80 6.6 102760 71
2004-02-18 07:26:18 51°14.4 2°54.795 8.1 78 6.6 102750 70
2004-02-18 07:26:24 51°14.399 2°54.762 8.2 80 6.6 102750 70
2004-02-18 07:26:29 51°14.397 2°54.736 10.3 83 6.7 102760 71
2004-02-18 07:26:34 51°14.396 2°54.71 8.9 80 6.7 102760 71
2004-02-18 07:26:39 51°14.394 2°54.686 10.6 85 6.7 102760 70
2004-02-18 07:26:44 51°14.391 2°54.663 8.7 90 6.7 102760 70
2004-02-18 07:26:48 51°14.389 2°54.645 9.6 89 6.7 102760 70
2004-02-18 07:26:54 51°14.387 2°54.619 8.9 94 6.7 102760 70
2004-02-18 07:26:58 51°14.384 2°54.602 8.7 92 6.7 102780 70
2004-02-18 07:27:04 51°14.381 2°54.577 7.3 97 6.7 102780 70
2004-02-18 07:27:08 51°14.379 2°54.561 8.2 88 6.7 102810 71
2004-02-18 07:27:14 51°14.375 2°54.537 8.3 97 6.7 102810 71
2004-02-18 07:27:18 51°14.373 2°54.522 8.2 98 6.7 102810 71
2004-02-18 07:27:24 51°14.368 2°54.501 7.5 111 6.7 102810 71
2004-02-18 07:27:29 51°14.364 2°54.484 7.4 111 6.7 102810 71
2004-02-18 07:27:34 51°14.358 2°54.468 8.1 118 6.7 102810 71
2004-02-18 07:27:40 51°14.35 2°54.45 7.6 123 6.7 102810 71
2004-02-18 07:27:44 51°14.345 2°54.438 6.3 119 6.7 102810 71
2004-02-18 07:27:49 51°14.34 2°54.422 6.5 119 6.7 102820 71
2004-02-18 07:27:54 51°14.334 2°54.407 6.4 110 6.7 102820 71
2004-02-18 07:27:58 51°14.329 2°54.395 6.6 116 6.7 102810 71
2004-02-18 07:28:04 51°14.323 2°54.377 6.9 117 6.7 102810 71
2004-02-18 07:28:08 51°14.319 2°54.365 7.3 115 6.7 102810 71
2004-02-18 07:28:14 51°14.312 2°54.347 7.4 114 6.7 102810 71
2004-02-18 07:28:20 51°14.306 2°54.328 7.7 109 6.7 102820 71
2004-02-18 07:28:24 51°14.302 2°54.316 7.9 114 6.7 102820 71
2004-02-18 07:28:29 51°14.297 2°54.3 7 114 6.7 102820 71
2004-02-18 07:28:34 51°14.293 2°54.284 7.6 111 6.7 102820 71
2004-02-18 07:28:38 51°14.29 2°54.272 6.9 114 6.7 102820 71
2004-02-18 07:28:44 51°14.285 2°54.252 7.6 106 6.7 102820 71
2004-02-18 07:28:48 51°14.282 2°54.239 6.7 111 6.7 102820 71
2004-02-18 07:28:54 51°14.277 2°54.22 7.1 111 6.7 102830 71
2004-02-18 07:28:58 51°14.273 2°54.208 8.4 110 6.7 102830 71
2004-02-18 07:29:04 51°14.269 2°54.191 8.2 116 6.7 102830 71
2004-02-18 07:29:09 51°14.265 2°54.176 8.2 108 6.7 102820 71
2004-02-18 07:29:14 51°14.261 2°54.162 8 118 6.7 102820 71
2004-02-18 07:29:19 51°14.258 2°54.149 7.4 115 6.7 102820 71
2004-02-18 07:29:24 51°14.254 2°54.136 8.8 117 6.7 102820 71
2004-02-18 07:29:28 51°14.252 2°54.126 7.1 105 6.7 102820 71
2004-02-18 07:29:34 51°14.248 2°54.111 8.5 114 6.7 102820 71
2004-02-18 07:29:38 51°14.246 2°54.101 7.6 125 6.7 102810 71
2004-02-18 07:29:44 51°14.242 2°54.087 7.9 114 6.7 102810 71
2004-02-18 07:29:48 51°14.241 2°54.078 6.9 113 6.7 102820 71
2004-02-18 07:29:54 51°14.238 2°54.065 6.6 113 6.7 102820 71
2004-02-18 07:29:58 51°14.236 2°54.056 7.7 104 6.7 102820 71
2004-02-18 07:30:04 51°14.234 2°54.044 7.7 108 6.7 102820 71
2004-02-18 07:30:09 51°14.232 2°54.034 8.2 107 6.7 102820 71
2004-02-18 07:30:14 51°14.23 2°54.024 9.1 102 6.7 102820 71
2004-02-18 07:30:18 51°14.228 2°54.017 8.8 108 6.7 102820 72
2004-02-18 07:30:24 51°14.227 2°54.006 8.1 116 6.7 102820 72
2004-02-18 07:30:29 51°14.225 2°53.997 9.5 111 6.7 102810 72
2004-02-18 07:30:34 51°14.224 2°53.988 9.7 102 6.7 102810 72
2004-02-18 07:30:38 51°14.223 2°53.981 9.6 107 6.7 102820 72
2004-02-18 07:30:44 51°14.221 2°53.971 8.9 107 6.7 102820 72
2004-02-18 07:30:49 51°14.22 2°53.963 9.6 105 6.7 102820 72
2004-02-18 07:30:54 51°14.219 2°53.955 9.7 113 6.7 102820 72
2004-02-18 07:30:58 51°14.218 2°53.949 9.5 109 6.7 102810 72
2004-02-18 07:31:04 51°14.216 2°53.94 9 107 6.7 102810 72
2004-02-18 07:31:09 51°14.215 2°53.933 8 106 6.7 102810 71
2004-02-18 07:31:14 51°14.214 2°53.926 8.6 99 6.7 102800 71
2004-02-18 07:31:19 51°14.212 2°53.919 7.5 114 6.7 102800 71
2004-02-18 07:31:24 51°14.211 2°53.912 8.9 104 6.7 102800 71
2004-02-18 07:31:28 51°14.21 2°53.907 7.6 112 6.7 102810 71
2004-02-18 07:31:34 51°14.209 2°53.9 8.6 108 6.7 102810 71
2004-02-18 07:31:38 51°14.208 2°53.895 9 110 6.7 102810 71
2004-02-18 07:31:44 51°14.206 2°53.887 9 111 6.7 102810 71
2004-02-18 07:31:48 51°14.205 2°53.883 8.8 110 6.7 102820 71
2004-02-18 07:31:54 51°14.203 2°53.875 9.4 112 6.7 102820 71
2004-02-18 07:31:58 51°14.202 2°53.87 8.6 112 6.7 102820 71
2004-02-18 07:32:04 51°14.2 2°53.861 8.4 114 6.7 102820 71
2004-02-18 07:32:09 51°14.199 2°53.853 8.1 114 6.7 102810 71
2004-02-18 07:32:14 51°14.196 2°53.844 8.4 121 6.7 102810 71
2004-02-18 07:32:19 51°14.194 2°53.835 8.6 121 6.7 102810 71
2004-02-18 07:32:24 51°14.191 2°53.823 7.1 122 6.7 102810 71
2004-02-18 07:32:28 51°14.188 2°53.813 7.1 118 6.7 102810 71
2004-02-18 07:32:34 51°14.182 2°53.796 8.5 116 6.7 102810 71
2004-02-18 07:32:39 51°14.177 2°53.781 7.6 111 6.7 102810 71
2004-02-18 07:32:44 51°14.172 2°53.763 6.1 104 6.7 102810 71
2004-02-18 07:32:49 51°14.167 2°53.744 5.9 101 6.7 102810 71
2004-02-18 07:32:54 51°14.161 2°53.724 7.6 100 6.7 102810 71
2004-02-18 07:32:58 51°14.156 2°53.706 6.5 92 6.7 102810 71
2004-02-18 07:33:04 51°14.148 2°53.679 7.1 90 6.7 102810 71
2004-02-18 07:33:08 51°14.144 2°53.659 6.7 84 6.7 102790 71
2004-02-18 07:33:14 51°14.135 2°53.629 9.2 87 6.7 102790 71
2004-02-18 07:33:18 51°14.13 2°53.608 8.4 83 6.7 102780 71
2004-02-18 07:33:24 51°14.121 2°53.576 9 84 6.7 102780 71
2004-02-18 07:33:29 51°14.115 2°53.548 6.3 79 6.7 102780 72
2004-02-18 07:33:34 51°14.107 2°53.52 5.9 73 6.7 102780 72
2004-02-18 07:33:38 51°14.102 2°53.497 7.6 82 6.7 102770 72
2004-02-18 07:33:44 51°14.092 2°53.463 8.3 82 6.7 102770 72
2004-02-18 07:33:48 51°14.086 2°53.441 8.2 90 6.7 102770 72
2004-02-18 07:33:54 51°14.075 2°53.406 7.8 92 6.7 102810 72
2004-02-18 07:33:58 51°14.067 2°53.384 7.7 82 6.7 102810 72
2004-02-18 07:34:04 51°14.057 2°53.35 6.4 87 6.7 102810 72
2004-02-18 07:34:09 51°14.046 2°53.322 6.1 80 6.7 102760 72
2004-02-18 07:34:14 51°14.037 2°53.295 6.1 80 6.7 102760 72
2004-02-18 07:34:19 51°14.027 2°53.267 7.6 89 6.6 102770 72
2004-02-18 07:34:24 51°14.016 2°53.239 8.1 98 6.6 102770 72
2004-02-18 07:34:28 51°14.009 2°53.217 6.1 80 6.7 102770 72
2004-02-18 07:34:34 51°13.996 2°53.182 8.6 89 6.7 102770 72
2004-02-18 07:34:38 51°13.989 2°53.159 5.6 80 6.7 102760 72
2004-02-18 07:34:44 51°13.977 2°53.125 6.1 76 6.7 102760 72
2004-02-18 07:34:48 51°13.97 2°53.101 4.8 80 6.7 102770 72
2004-02-18 07:34:54 51°13.958 2°53.068 6.9 78 6.7 102770 72
2004-02-18 07:34:58 51°13.95 2°53.045 8.6 91 6.7 102770 72
2004-02-18 07:35:04 51°13.939 2°53.01 7.2 97 6.7 102770 72
2004-02-18 07:35:09 51°13.928 2°52.982 8.9 90 6.7 102780 72
2004-02-18 07:35:14 51°13.919 2°52.952 6.4 103 6.7 102780 72
2004-02-18 07:35:18 51°13.91 2°52.931 8.9 89 6.7 102780 72
2004-02-18 07:35:24 51°13.899 2°52.895 7 96 6.7 102780 72
2004-02-18 07:35:29 51°13.889 2°52.867 6.9 87 6.7 102770 72
2004-02-18 07:35:34 51°13.879 2°52.837 6.4 77 6.7 102770 72
2004-02-18 07:35:38 51°13.872 2°52.814 6.6 79 6.7 102770 72
2004-02-18 07:35:44 51°13.86 2°52.779 7.3 81 6.7 102770 72
2004-02-18 07:35:48 51°13.852 2°52.756 8.6 89 6.7 102770 72
2004-02-18 07:35:54 51°13.841 2°52.721 6.7 95 6.7 102770 72
2004-02-18 07:35:58 51°13.833 2°52.698 5.4 72 6.6 102770 72
2004-02-18 07:36:04 51°13.821 2°52.662 7.5 83 6.6 102770 72
2004-02-18 07:36:09 51°13.811 2°52.634 6.2 83 6.7 102780 72
2004-02-18 07:36:14 51°13.801 2°52.605 8.3 91 6.7 102780 72
2004-02-18 07:36:18 51°13.794 2°52.582 6.5 82 6.6 102770 72
2004-02-18 07:36:24 51°13.781 2°52.547 5.4 79 6.6 102770 72
2004-02-18 07:36:28 51°13.774 2°52.524 6.2 84 6.7 102770 72
2004-02-18 07:36:34 51°13.762 2°52.489 7.9 90 6.7 102770 72
2004-02-18 07:36:39 51°13.752 2°52.461 6.1 79 6.7 102780 72
2004-02-18 07:36:44 51°13.742 2°52.431 6.9 80 6.7 102780 72
2004-02-18 07:36:48 51°13.734 2°52.408 8.5 88 6.7 102770 72
2004-02-18 07:36:54 51°13.723 2°52.373 7.3 85 6.7 102780 72
2004-02-18 07:36:58 51°13.715 2°52.351 5.9 75 6.7 102780 72
2004-02-18 07:37:04 51°13.703 2°52.315 7.2 89 6.7 102780 72
2004-02-18 07:37:09 51°13.695 2°52.285 4.8 79 6.6 102770 72
2004-02-18 07:37:14 51°13.683 2°52.257 7.2 83 6.6 102770 72
2004-02-18 07:37:18 51°13.678 2°52.232 5.4 70 6.7 102770 72
2004-02-18 07:37:24 51°13.664 2°52.198 9.9 87 6.7 102770 72
2004-02-18 07:37:29 51°13.655 2°52.168 6.8 85 6.7 102770 72
2004-02-18 07:37:34 51°13.645 2°52.14 8.4 92 6.7 102780 73
2004-02-18 07:37:39 51°13.635 2°52.111 7.4 86 6.7 102780 73
2004-02-18 07:37:44 51°13.625 2°52.082 7.5 82 6.7 102780 73
2004-02-18 07:37:49 51°13.616 2°52.052 7 71 6.7 102770 73
2004-02-18 07:37:54 51°13.606 2°52.023 7.6 82 6.7 102770 73
2004-02-18 07:37:58 51°13.599 2°51.999 7.9 95 6.7 102770 73
2004-02-18 07:38:04 51°13.586 2°51.966 9.7 91 6.7 102770 73
2004-02-18 07:38:08 51°13.578 2°51.941 7.3 108 6.7 102780 73
2004-02-18 07:38:14 51°13.566 2°51.907 7.2 87 6.7 102780 73
2004-02-18 07:38:18 51°13.557 2°51.885 8.3 84 6.7 102780 73
2004-02-18 07:38:24 51°13.546 2°51.849 7.9 93 6.7 102780 73
2004-02-18 07:38:29 51°13.535 2°51.821 9.7 86 6.6 102770 73
2004-02-18 07:38:34 51°13.525 2°51.792 8.9 100 6.6 102760 72
2004-02-18 07:38:39 51°13.514 2°51.765 8.8 90 6.6 102760 72
2004-02-18 07:38:44 51°13.505 2°51.735 7.8 84 6.6 102760 72
2004-02-18 07:38:49 51°13.494 2°51.706 9.5 87 6.7 102770 72
2004-02-18 07:38:54 51°13.485 2°51.677 7.4 90 6.7 102770 72
2004-02-18 07:38:58 51°13.477 2°51.654 7.4 88 6.6 102770 72
2004-02-18 07:39:04 51°13.464 2°51.62 9 91 6.6 102770 72
2004-02-18 07:39:09 51°13.454 2°51.591 8 91 6.6 102770 72
2004-02-18 07:39:14 51°13.444 2°51.561 7.9 90 6.6 102770 72
2004-02-18 07:39:18 51°13.436 2°51.539 7.7 94 6.6 102780 73
2004-02-18 07:39:24 51°13.423 2°51.504 6.3 81 6.7 102770 72
2004-02-18 07:39:29 51°13.414 2°51.474 6.9 84 6.7 102770 72
2004-02-18 07:39:34 51°13.403 2°51.446 7.7 90 6.7 102770 72
2004-02-18 07:39:39 51°13.395 2°51.417 7.1 89 6.7 102770 72
2004-02-18 07:39:44 51°13.384 2°51.388 7.4 100 6.7 102770 72
2004-02-18 07:39:49 51°13.375 2°51.358 7.2 95 6.6 102780 72
2004-02-18 07:39:54 51°13.365 2°51.33 8.8 90 6.6 102780 72
2004-02-18 07:39:58 51°13.359 2°51.305 7.1 93 6.7 102780 72
2004-02-18 07:40:04 51°13.346 2°51.271 9.1 93 6.7 102780 72
2004-02-18 07:40:08 51°13.34 2°51.247 7.5 90 6.7 102780 73
2004-02-18 07:40:14 51°13.327 2°51.213 9.5 97 6.7 102780 73
2004-02-18 07:40:18 51°13.321 2°51.189 6.5 90 6.7 102780 72
2004-02-18 07:40:24 51°13.309 2°51.155 9 89 6.7 102780 72
2004-02-18 07:40:28 51°13.302 2°51.131 7 106 6.7 102780 72
2004-02-18 07:40:34 51°13.289 2°51.098 5 81 6.7 102780 72
2004-02-18 07:40:38 51°13.282 2°51.074 7.6 90 6.6 102780 72
2004-02-18 07:40:44 51°13.269 2°51.04 9.4 90 6.6 102780 72
2004-02-18 07:40:48 51°13.263 2°51.016 7.8 88 6.7 102780 72
2004-02-18 07:40:54 51°13.25 2°50.982 8.7 85 6.6 102780 72
2004-02-18 07:40:58 51°13.244 2°50.958 6.3 91 6.6 102780 72
2004-02-18 07:41:04 51°13.231 2°50.925 8.6 81 6.6 102780 72
2004-02-18 07:41:08 51°13.224 2°50.901 7.2 91 6.6 102780 72
2004-02-18 07:41:14 51°13.211 2°50.867 7.5 95 6.6 102780 72
2004-02-18 07:41:19 51°13.202 2°50.837 7.8 89 6.6 102780 72
2004-02-18 07:41:24 51°13.193 2°50.808 7.2 88 6.6 102780 72
2004-02-18 07:41:28 51°13.185 2°50.785 8.2 84 6.7 102790 72
2004-02-18 07:41:34 51°13.173 2°50.749 6.6 93 6.7 102790 72
2004-02-18 07:41:38 51°13.166 2°50.726 7.8 88 6.6 102780 72
2004-02-18 07:41:44 51°13.154 2°50.691 8.5 90 6.6 102780 72
2004-02-18 07:41:48 51°13.148 2°50.667 6.3 86 6.7 102780 72
2004-02-18 07:41:54 51°13.135 2°50.633 9.4 92 6.7 102780 72
2004-02-18 07:41:58 51°13.128 2°50.609 5.9 79 6.7 102780 72
2004-02-18 07:42:04 51°13.115 2°50.574 9.8 88 6.7 102780 72
2004-02-18 07:42:09 51°13.107 2°50.545 7.2 88 6.7 102780 72
2004-02-18 07:42:14 51°13.096 2°50.517 8.6 90 6.7 102780 72
2004-02-18 07:42:18 51°13.089 2°50.493 7.4 92 6.6 102780 72
2004-02-18 07:42:24 51°13.077 2°50.458 5.9 83 6.6 102780 72
2004-02-18 07:42:29 51°13.068 2°50.428 6.7 92 6.6 102780 72
2004-02-18 07:42:34 51°13.057 2°50.4 7.7 96 6.6 102780 72
2004-02-18 07:42:38 51°13.05 2°50.377 7.6   6.6 102780 72
2004-02-18 07:42:44 51°13.038 2°50.341 7.5 94 6.6 102780 72
2004-02-18 07:42:48 51°13.031 2°50.318 5.7 91 6.6 102780 72
2004-02-18 07:42:54 51°13.018 2°50.284 8.6 86 6.6 102780 72
2004-02-18 07:42:58 51°13.011 2°50.259 5.7 89 6.6 102780 72
2004-02-18 07:43:04 51°12.999 2°50.225 7.9 99 6.6 102780 72
2004-02-18 07:43:09 51°12.99 2°50.197 6.1 91 6.6 102780 72
2004-02-18 07:43:14 51°12.979 2°50.169 7.2 88 6.6 102780 72
2004-02-18 07:43:18 51°12.972 2°50.145 7.9 86 6.7 102790 72
2004-02-18 07:43:24 51°12.959 2°50.111 7.2 91 6.7 102790 72
2004-02-18 07:43:28 51°12.952 2°50.087 6.4 83 6.6 102780 72
2004-02-18 07:43:34 51°12.94 2°50.052 5.6 72 6.6 102780 72
2004-02-18 07:43:39 51°12.931 2°50.023 7.2 93 6.6 102780 72
2004-02-18 07:43:44 51°12.921 2°49.995 7 91 6.6 102780 72
2004-02-18 07:43:48 51°12.912 2°49.972 8.3 87 6.6 102780 71
2004-02-18 07:43:54 51°12.902 2°49.937 6.8 98 6.6 102780 72
2004-02-18 07:44:00 51°12.889 2°49.903 7.4 79 6.6 102780 72
2004-02-18 07:44:04 51°12.882 2°49.879 6.7 82 6.6 102780 72
2004-02-18 07:44:09 51°12.872 2°49.85 7.5 84 6.6 102790 71
2004-02-18 07:44:14 51°12.862 2°49.822 5.5 82 6.6 102790 71
2004-02-18 07:44:18 51°12.855 2°49.798 6 87 6.6 102780 71
2004-02-18 07:44:24 51°12.843 2°49.764 7.2 81 6.6 102780 71
2004-02-18 07:44:29 51°12.834 2°49.734 7.7 90 6.6 102780 72
2004-02-18 07:44:34 51°12.825 2°49.705 7.5 92 6.7 102780 71
2004-02-18 07:44:39 51°12.815 2°49.677 7.3 96 6.7 102780 71
2004-02-18 07:44:44 51°12.807 2°49.647 6.5 83 6.7 102780 71
2004-02-18 07:44:49 51°12.797 2°49.618 7.7 96 6.6 102780 72
2004-02-18 07:44:54 51°12.788 2°49.588 4.4 82 6.6 102780 72
2004-02-18 07:44:58 51°12.78 2°49.565 7.2 92 6.6 102780 71
2004-02-18 07:45:04 51°12.77 2°49.529 4.6 74 6.6 102780 71
2004-02-18 07:45:08 51°12.761 2°49.506 6.1 78 6.6 102780 71
2004-02-18 07:45:14 51°12.75 2°49.471 5 83 6.7 102790 71
2004-02-18 07:45:19 51°12.741 2°49.441 5.9 100 6.7 102790 71
2004-02-18 07:45:24 51°12.729 2°49.414 4.6 82 6.7 102790 71
2004-02-18 07:45:29 51°12.72 2°49.383 5.8 73 6.6 102790 72
2004-02-18 07:45:34 51°12.709 2°49.355 5.6 70 6.7 102780 72
2004-02-18 07:45:39 51°12.701 2°49.326 4.9 76 6.7 102780 72
2004-02-18 07:45:44 51°12.688 2°49.299 6 71 6.7 102780 72
2004-02-18 07:45:49 51°12.68 2°49.268 6.8 88 6.7 102780 72
2004-02-18 07:45:54 51°12.669 2°49.242 6.8 91 6.7 102780 72
2004-02-18 07:45:58 51°12.66 2°49.219 7.8 84 6.7 102780 72
2004-02-18 07:46:04 51°12.65 2°49.182 7.1 86 6.7 102780 72
2004-02-18 07:46:09 51°12.638 2°49.156 5.6 76 6.7 102780 72
2004-02-18 07:46:14 51°12.629 2°49.125 6.9 88 6.7 102780 72
2004-02-18 07:46:18 51°12.62 2°49.104 7.3 90 6.7 102770 72
2004-02-18 07:46:24 51°12.608 2°49.07 6.3 91 6.7 102770 72
2004-02-18 07:46:29 51°12.597 2°49.042 6.4 99 6.7 102770 72
2004-02-18 07:46:34 51°12.587 2°49.014 6.1 84 6.7 102770 72
2004-02-18 07:46:39 51°12.575 2°48.986 5.8 83 6.7 102790 72
2004-02-18 07:46:44 51°12.566 2°48.956 5.6 91 6.7 102790 72
2004-02-18 07:46:49 51°12.555 2°48.93 4.9 76 6.7 102780 72
2004-02-18 07:46:54 51°12.544 2°48.902 6 83 6.7 102780 72
2004-02-18 07:46:59 51°12.533 2°48.874 5 73 6.7 102780 72
2004-02-18 07:47:04 51°12.522 2°48.846 5.8 82 6.7 102780 72
2004-02-18 07:47:08 51°12.514 2°48.823 6.4 85 6.6 102780 71
2004-02-18 07:47:14 51°12.501 2°48.79 8 81 6.6 102780 71
2004-02-18 07:47:18 51°12.492 2°48.768 7.6 82 6.7 102780 72
2004-02-18 07:47:24 51°12.48 2°48.733 7.7 86 6.7 102780 72
2004-02-18 07:47:29 51°12.471 2°48.704 7.3 89 6.7 102790 72
2004-02-18 07:47:34 51°12.46 2°48.676 6.8 87 6.7 102790 72
2004-02-18 07:47:38 51°12.452 2°48.653 7.1 91 6.7 102780 72
2004-02-18 07:47:44 51°12.44 2°48.619 7.1 86 6.7 102780 72
2004-02-18 07:47:49 51°12.431 2°48.591 6.3 96 6.7 102780 71
2004-02-18 07:47:54 51°12.42 2°48.563 5.7 93 6.6 102780 71
2004-02-18 07:47:59 51°12.41 2°48.535 6.7 86 6.6 102780 71
2004-02-18 07:48:04 51°12.4 2°48.508 7 91 6.6 102780 71
2004-02-18 07:48:08 51°12.391 2°48.487 5.7 77 6.7 102770 71
2004-02-18 07:48:14 51°12.379 2°48.453 6.9 85 6.7 102770 71
2004-02-18 07:48:19 51°12.37 2°48.424 5.4 80 6.7 102780 71
2004-02-18 07:48:24 51°12.36 2°48.396 7.1 79 6.7 102780 71
2004-02-18 07:48:28 51°12.352 2°48.374 7 86 6.7 102780 71
2004-02-18 07:48:34 51°12.341 2°48.339 7.7 93 6.7 102780 71
2004-02-18 07:48:38 51°12.333 2°48.317 7 89 6.7 102780 72
2004-02-18 07:48:44 51°12.32 2°48.284 6.8 82 6.7 102780 72
2004-02-18 07:48:48 51°12.312 2°48.261 5.9 91 6.7 102780 72
2004-02-18 07:48:54 51°12.299 2°48.228 5.2 75 6.7 102780 72
2004-02-18 07:48:58 51°12.293 2°48.203 5.5 83 6.7 102780 72
2004-02-18 07:49:04 51°12.279 2°48.17 6.4 80 6.7 102780 72
2004-02-18 07:49:09 51°12.272 2°48.139 5.5 83 6.7 102780 72
2004-02-18 07:49:14 51°12.261 2°48.112 6.8 82 6.7 102780 71
2004-02-18 07:49:19 51°12.252 2°48.083 6.6 86 6.7 102780 71
2004-02-18 07:49:24 51°12.242 2°48.055 6.7 91 6.7 102780 71
2004-02-18 07:49:28 51°12.233 2°48.033 6.1 91 6.7 102780 71
2004-02-18 07:49:34 51°12.221 2°47.998 6.9 90 6.7 102780 71
2004-02-18 07:49:38 51°12.213 2°47.976 6.3 82 6.7 102780 71
2004-02-18 07:49:44 51°12.202 2°47.941 6.5 84 6.7 102780 71
2004-02-18 07:49:48 51°12.192 2°47.92 7.7 82 6.7 102780 71
2004-02-18 07:49:54 51°12.181 2°47.885 4.8 74 6.7 102780 71
2004-02-18 07:49:58 51°12.172 2°47.864 6.2 72 6.7 102790 71
2004-02-18 07:50:04 51°12.161 2°47.829 5 67 6.7 102790 71
2004-02-18 07:50:09 51°12.15 2°47.802 5.7 64 6.7 102790 71
2004-02-18 07:50:14 51°12.14 2°47.774 6.6 82 6.7 102790 71
2004-02-18 07:50:18 51°12.132 2°47.752 7.5 83 6.7 102790 71
2004-02-18 07:50:24 51°12.12 2°47.717 7.5 90 6.7 102790 71
2004-02-18 07:50:29 51°12.11 2°47.689 6.2 82 6.7 102790 72
2004-02-18 07:50:34 51°12.1 2°47.66 6.5 80 6.7 102790 72
2004-02-18 07:50:38 51°12.093 2°47.637 6.2 83 6.7 102780 72
2004-02-18 07:50:44 51°12.081 2°47.603 6.2 69 6.7 102780 72
2004-02-18 07:50:48 51°12.072 2°47.582 7.6 72 6.7 102780 71
2004-02-18 07:50:54 51°12.06 2°47.547 6.4 76 6.7 102780 71
2004-02-18 07:51:00 51°12.049 2°47.513 7.1 91 6.7 102790 71
2004-02-18 07:51:04 51°12.04 2°47.491 8.3 92 6.7 102790 71
2004-02-18 07:51:09 51°12.032 2°47.461 6.2 97 6.7 102780 71
2004-02-18 07:51:14 51°12.021 2°47.434 6.8 90 6.7 102790 71
2004-02-18 07:51:19 51°12.012 2°47.406 6.2 86 6.7 102790 71
2004-02-18 07:51:24 51°12.001 2°47.378 6.1 82 6.7 102790 71
2004-02-18 07:51:28 51°11.993 2°47.355 4.7 77 6.7 102790 71
2004-02-18 07:51:34 51°11.981 2°47.322 6.2 79 6.7 102790 71
2004-02-18 07:51:39 51°11.97 2°47.295 5.3 75 6.7 102780 71
2004-02-18 07:51:44 51°11.96 2°47.266 7.4 82 6.7 102780 71
2004-02-18 07:51:48 51°11.953 2°47.242 6.7 79 6.7 102790 71
2004-02-18 07:51:54 51°11.94 2°47.209 8.4 86 6.7 102790 71
2004-02-18 07:51:58 51°11.933 2°47.185 5.4 93 6.7 102790 71
2004-02-18 07:52:04 51°11.92 2°47.152 8.9 90 6.7 102790 71
2004-02-18 07:52:09 51°11.912 2°47.122 5.1 76 6.7 102790 71
2004-02-18 07:52:14 51°11.9 2°47.096 9 85 6.7 102790 71
2004-02-18 07:52:18 51°11.894 2°47.072 7.1 84 6.7 102780 71
2004-02-18 07:52:24 51°11.882 2°47.038 7.1 88 6.7 102780 71
2004-02-18 07:52:28 51°11.874 2°47.016 7.2 91 6.7 102780 71
2004-02-18 07:52:34 51°11.862 2°46.982 6.6 87 6.7 102780 71
2004-02-18 07:52:38 51°11.853 2°46.961 6.8 87 6.7 102780 71
2004-02-18 07:52:44 51°11.841 2°46.928 6.8 86 6.7 102780 71
2004-02-18 07:52:48 51°11.832 2°46.906 6.5 83 6.7 102790 71
2004-02-18 07:52:54 51°11.821 2°46.87 6.2 83 6.7 102790 71
2004-02-18 07:52:59 51°11.811 2°46.844 6.3 81 6.7 102780 71
2004-02-18 07:53:04 51°11.801 2°46.815 6.9 80 6.7 102780 71
2004-02-18 07:53:09 51°11.792 2°46.786 4.5 73 6.7 102790 71
2004-02-18 07:53:14 51°11.781 2°46.758 6.7 81 6.7 102790 71
2004-02-18 07:53:18 51°11.773 2°46.736 8.3 87 6.7 102790 71
2004-02-18 07:53:24 51°11.762 2°46.701 7 87 6.7 102790 71
2004-02-18 07:53:28 51°11.753 2°46.68 7.9 80 6.7 102790 71
2004-02-18 07:53:34 51°11.742 2°46.645 6.4 97 6.7 102790 72
2004-02-18 07:53:38 51°11.733 2°46.623 6.9 97 6.7 102790 72
2004-02-18 07:53:44 51°11.721 2°46.588 4.7 76 6.7 102790 72
2004-02-18 07:53:49 51°11.71 2°46.561 6.4 79 6.7 102790 71
2004-02-18 07:53:54 51°11.7 2°46.533 6.5 81 6.7 102790 71
2004-02-18 07:53:58 51°11.693 2°46.511 6.9 84 6.7 102790 71
2004-02-18 07:54:04 51°11.68 2°46.477 6.9 81 6.7 102790 71
2004-02-18 07:54:09 51°11.67 2°46.448 7.1 79 6.8 102790 71
2004-02-18 07:54:14 51°11.66 2°46.42 5.3 83 6.8 102790 71
2004-02-18 07:54:18 51°11.652 2°46.398 6.4 85 6.7 102790 71
2004-02-18 07:54:24 51°11.639 2°46.365 5.3 78 6.7 102790 71
2004-02-18 07:54:28 51°11.631 2°46.343 6 78 6.7 102790 72
2004-02-18 07:54:34 51°11.619 2°46.308 5.3 77 6.7 102790 72
2004-02-18 07:54:38 51°11.612 2°46.285 7 85 6.7 102780 72
2004-02-18 07:54:44 51°11.599 2°46.252 7.6 83 6.7 102780 72
2004-02-18 07:54:48 51°11.591 2°46.229 7.2 83 6.7 102790 72
2004-02-18 07:54:54 51°11.578 2°46.195 6.7 86 6.7 102790 72
2004-02-18 07:54:58 51°11.571 2°46.171 6.4 87 6.7 102790 72
2004-02-18 07:55:04 51°11.559 2°46.137 6.3 79 6.7 102790 72
2004-02-18 07:55:09 51°11.551 2°46.108 6.9 82 6.7 102790 72
2004-02-18 07:55:14 51°11.541 2°46.078 8.7 93 6.7 102790 72
2004-02-18 07:55:18 51°11.535 2°46.054 6.9 86 6.7 102790 71
2004-02-18 07:55:24 51°11.525 2°46.018 8.8 92 6.7 102790 71
2004-02-18 07:55:29 51°11.516 2°45.989 9.2 89 6.7 102790 71
2004-02-18 07:55:34 51°11.509 2°45.958 7.8 84 6.7 102790 71
2004-02-18 07:55:39 51°11.501 2°45.927 7 83 6.7 102790 71
2004-02-18 07:55:44 51°11.492 2°45.898 6.1 77 6.7 102790 71
2004-02-18 07:55:49 51°11.486 2°45.867 6 81 6.7 102790 71
2004-02-18 07:55:54 51°11.478 2°45.837 7.2 80 6.7 102790 71
2004-02-18 07:55:58 51°11.471 2°45.813 6.8 80 6.7 102790 71
2004-02-18 07:56:04 51°11.462 2°45.776 8 91 6.7 102790 71
2004-02-18 07:56:08 51°11.456 2°45.752 8.3 87 6.7 102790 71
2004-02-18 07:56:14 51°11.447 2°45.715 6.7 81 6.7 102790 71
2004-02-18 07:56:18 51°11.439 2°45.692 5.9 72 6.7 102790 71
2004-02-18 07:56:24 51°11.43 2°45.654 6 70 6.7 102790 71
2004-02-18 07:56:28 51°11.423 2°45.631 8.3 86 6.7 102780 71
2004-02-18 07:56:34 51°11.415 2°45.594 5.1 79 6.7 102790 71
2004-02-18 07:56:38 51°11.406 2°45.571 8.7 80 6.7 102790 71
2004-02-18 07:56:44 51°11.399 2°45.533 6.1 80 6.7 102790 71
2004-02-18 07:56:48 51°11.391 2°45.509 8.5 87 6.7 102790 72
2004-02-18 07:56:53 51°11.385 2°45.479 6.2 82 6.7 102790 72
2004-02-18 07:56:58 51°11.377 2°45.449 5.7 78 6.7 102790 72
2004-02-18 07:57:04 51°11.367 2°45.413 5.8 79 6.7 102790 72
2004-02-18 07:57:09 51°11.36 2°45.382 6.3 70 6.7 102780 72
2004-02-18 07:57:14 51°11.352 2°45.352 7.3 81 6.7 102780 72
2004-02-18 07:57:18 51°11.347 2°45.328 6.4 76 6.7 102780 72
2004-02-18 07:57:24 51°11.337 2°45.293 6.2 77 6.7 102780 72
2004-02-18 07:57:28 51°11.33 2°45.27 6.4 80 6.7 102790 72
2004-02-18 07:57:34 51°11.321 2°45.233 6.4 84 6.7 102790 72
2004-02-18 07:57:38 51°11.314 2°45.21 7.7 84 6.7 102790 72
2004-02-18 07:57:44 51°11.305 2°45.174 4.6 74 6.7 102790 72
2004-02-18 07:57:48 51°11.298 2°45.151 5.4 71 6.7 102790 72
2004-02-18 07:57:54 51°11.29 2°45.115 5.8 74 6.7 102790 72
2004-02-18 07:57:58 51°11.283 2°45.091 7.7 84 6.7 102790 72
2004-02-18 07:58:04 51°11.275 2°45.053 6.9 87 6.7 102790 72
2004-02-18 07:58:08 51°11.269 2°45.03 5 79 6.7 102790 72
2004-02-18 07:58:14 51°11.26 2°44.995 5.6 75 6.7 102790 72
2004-02-18 07:58:18 51°11.254 2°44.97 5.7 80 6.7 102790 72
2004-02-18 07:58:24 51°11.245 2°44.935 6.5 74 6.7 102790 72
2004-02-18 07:58:29 51°11.238 2°44.905 6.9 73 6.7 102790 72
2004-02-18 07:58:34 51°11.232 2°44.874 6.1 80 6.7 102790 72
2004-02-18 07:58:39 51°11.223 2°44.846 6.7 81 6.7 102790 72
2004-02-18 07:58:44 51°11.217 2°44.815 6.5 73 6.7 102790 72
2004-02-18 07:58:48 51°11.21 2°44.791 6.1 74 6.7 102800 72
2004-02-18 07:58:54 51°11.203 2°44.755 6.6 88 6.7 102800 72
2004-02-18 07:58:58 51°11.196 2°44.732 5.8 80 6.7 102790 72
2004-02-18 07:59:04 51°11.188 2°44.696 7.2 79 6.7 102790 72
2004-02-18 07:59:09 51°11.181 2°44.666 7.6 89 6.7 102790 72
2004-02-18 07:59:14 51°11.174 2°44.635 5.8 80 6.7 102790 72
2004-02-18 07:59:18 51°11.168 2°44.612 6.4 81 6.7 102790 72
2004-02-18 07:59:24 51°11.16 2°44.576 6.5 71 6.7 102790 72
2004-02-18 07:59:28 51°11.154 2°44.552 5.8 75 6.7 102790 72
2004-02-18 07:59:34 51°11.146 2°44.516 6.5 78 6.7 102780 72
2004-02-18 07:59:39 51°11.138 2°44.486 4.7 79 6.7 102780 72
2004-02-18 07:59:44 51°11.132 2°44.455 8.2 86 6.7 102780 72
2004-02-18 07:59:48 51°11.125 2°44.432 5.8 75 6.7 102780 72
2004-02-18 07:59:54 51°11.118 2°44.396 5.5 79 6.7 102790 72
2004-02-18 07:59:59 51°11.109 2°44.366 5.5 80 6.7 102790 72
2004-02-18 08:00:04 51°11.104 2°44.335 6.9 76 6.7 102790 72
2004-02-18 08:00:08 51°11.097 2°44.313 6.9 73 6.7 102790 72
2004-02-18 08:00:14 51°11.09 2°44.275 7.1 68 6.7 102780 72
2004-02-18 08:00:18 51°11.085 2°44.251 6.6 63 6.7 102780 72
2004-02-18 08:00:24 51°11.077 2°44.215 6.1 71 6.7 102790 72
2004-02-18 08:00:28 51°11.072 2°44.19 7.4 62 6.7 102790 72
2004-02-18 08:00:34 51°11.064 2°44.154 8.5 79 6.7 102780 73
2004-02-18 08:00:39 51°11.06 2°44.123 6.2 69 6.7 102780 73
2004-02-18 08:00:44 51°11.052 2°44.092 7.4 70 6.7 102780 73
2004-02-18 08:00:49 51°11.048 2°44.061 6 69 6.7 102780 73
2004-02-18 08:00:54 51°11.04 2°44.031 7.2 62 6.7 102780 73
2004-02-18 08:00:59 51°11.034 2°44 6.8 68 6.7 102780 73
2004-02-18 08:01:04 51°11.029 2°43.97 6.5 73 6.7 102780 73
2004-02-18 08:01:09 51°11.022 2°43.939 6.5 76 6.7 102780 73
2004-02-18 08:01:14 51°11.017 2°43.909 7 65 6.7 102780 73
2004-02-18 08:01:19 51°11.01 2°43.879 7.2 75 6.7 102780 73
2004-02-18 08:01:24 51°11.006 2°43.847 6.9 75 6.7 102780 73
2004-02-18 08:01:29 51°11 2°43.817 7 79 6.7 102780 73
2004-02-18 08:01:34 51°10.994 2°43.787 7.9 63 6.7 102780 73
2004-02-18 08:01:38 51°10.99 2°43.762 7.4 76 6.7 102780 73
2004-02-18 08:01:44 51°10.982 2°43.726 6.7 75 6.7 102780 73
2004-02-18 08:01:48 51°10.977 2°43.701 6.7 78 6.7 102780 73
2004-02-18 08:01:54 51°10.97 2°43.665 8.3 82 6.7 102780 73
2004-02-18 08:01:58 51°10.966 2°43.64 6.3 67 6.7 102780 73
2004-02-18 08:02:04 51°10.958 2°43.604 7.8 80 6.7 102780 73
2004-02-18 08:02:08 51°10.953 2°43.579 6.6 69 6.7 102780 73
2004-02-18 08:02:14 51°10.946 2°43.543 6.3 73 6.7 102780 73
2004-02-18 08:02:19 51°10.94 2°43.512 7.9 69 6.7 102780 73
2004-02-18 08:02:24 51°10.935 2°43.481 6.7 68 6.7 102780 73
2004-02-18 08:02:28 51°10.929 2°43.457 7.1 72 6.7 102780 73
2004-02-18 08:02:34 51°10.923 2°43.42 7.5 63 6.7 102780 73
2004-02-18 08:02:38 51°10.917 2°43.396 8.5 68 6.7 102780 73
2004-02-18 08:02:44 51°10.91 2°43.359 7.6 73 6.7 102790 73
2004-02-18 08:02:48 51°10.906 2°43.334 7.2 72 6.7 102790 73
2004-02-18 08:02:54 51°10.899 2°43.299 7.9 79 6.7 102780 73
2004-02-18 08:02:58 51°10.894 2°43.275 6.2 74 6.7 102780 73
2004-02-18 08:03:04 51°10.886 2°43.238 7.2 67 6.7 102770 73
2004-02-18 08:03:08 51°10.881 2°43.214 6.8 77 6.7 102770 73
2004-02-18 08:03:14 51°10.873 2°43.178 6.8 74 6.7 102780 73
2004-02-18 08:03:19 51°10.869 2°43.148 6.3 71 6.7 102780 73
2004-02-18 08:03:24 51°10.862 2°43.118 7.3 73 6.7 102780 73
2004-02-18 08:03:28 51°10.858 2°43.093 7.4 75 6.7 102780 73
2004-02-18 08:03:34 51°10.851 2°43.056 6.8 68 6.7 102780 73
2004-02-18 08:03:38 51°10.846 2°43.032 7.9 68 6.7 102780 73
2004-02-18 08:03:44 51°10.842 2°42.994 7.7 53 6.7 102780 73
2004-02-18 08:03:48 51°10.837 2°42.969 7.8 73 6.7 102780 73
2004-02-18 08:03:54 51°10.832 2°42.932 6.6 65 6.7 102780 73
2004-02-18 08:03:58 51°10.826 2°42.908 8.3 65 6.7 102780 73
2004-02-18 08:04:04 51°10.821 2°42.87 7.6 63 6.7 102780 73
2004-02-18 08:04:09 51°10.815 2°42.839 9.1 63 6.7 102780 73
2004-02-18 08:04:14 51°10.81 2°42.808 7.4 72 6.7 102780 73
2004-02-18 08:04:18 51°10.805 2°42.785 9.1 76 6.7 102780 73
2004-02-18 08:04:24 51°10.799 2°42.748 8 80 6.7 102780 73
2004-02-18 08:04:29 51°10.794 2°42.717 9.1 80 6.7 102780 73
2004-02-18 08:04:34 51°10.789 2°42.686 8.2 66 6.7 102780 73
2004-02-18 08:04:38 51°10.785 2°42.661 7.6 71 6.7 102780 73
2004-02-18 08:04:44 51°10.779 2°42.625 6.8 66 6.7 102770 73
2004-02-18 08:04:48 51°10.774 2°42.601 7.2 69 6.7 102770 73
2004-02-18 08:04:54 51°10.768 2°42.564 7.1 72 6.7 102760 73
2004-02-18 08:04:58 51°10.763 2°42.539 7.8 64 6.7 102760 73
2004-02-18 08:05:04 51°10.756 2°42.501 8.4 65 6.7 102770 73
2004-02-18 08:05:09 51°10.752 2°42.471 7.4 63 6.7 102770 73
2004-02-18 08:05:13 51°10.747 2°42.447 8.2 69 6.7 102780 73
2004-02-18 08:05:20 51°10.739 2°42.404 8 71 6.7 102780 73
2004-02-18 08:05:24 51°10.735 2°42.379 8.4 73 6.7 102780 73
2004-02-18 08:05:28 51°10.731 2°42.353 7.1 73 6.7 102780 73
2004-02-18 08:05:34 51°10.724 2°42.317 9.2 85 6.7 102770 73
2004-02-18 08:05:39 51°10.719 2°42.288 6.8 67 6.7 102770 73
2004-02-18 08:05:44 51°10.713 2°42.257 7.6 67 6.7 102780 73
2004-02-18 08:05:48 51°10.708 2°42.232 7.7 70 6.7 102780 73
2004-02-18 08:05:54 51°10.702 2°42.194 7.4 76 6.7 102780 73
2004-02-18 08:05:59 51°10.698 2°42.162 8.2 64 6.7 102780 73
2004-02-18 08:06:04 51°10.692 2°42.132 8.1 80 6.7 102770 73
2004-02-18 08:06:08 51°10.688 2°42.108 6.8 76 6.7 102770 73
2004-02-18 08:06:14 51°10.681 2°42.071 7.2 78 6.7 102770 73
2004-02-18 08:06:19 51°10.675 2°42.039 7.3 67 6.7 102770 73
2004-02-18 08:06:24 51°10.67 2°42.008 8 68 6.7 102780 73
2004-02-18 08:06:28 51°10.666 2°41.983 7.2 64 6.7 102780 73
2004-02-18 08:06:34 51°10.659 2°41.947 7.6 77 6.8 102780 73
2004-02-18 08:06:38 51°10.655 2°41.922 8.5   6.8 102780 73
2004-02-18 08:06:44 51°10.648 2°41.886 8.2 80 6.7 102780 73
2004-02-18 08:06:49 51°10.642 2°41.855 6.3 75 6.7 102780 73
2004-02-18 08:06:54 51°10.637 2°41.823 8.9 82 6.8 102780 73
2004-02-18 08:06:59 51°10.632 2°41.793 7.4 80 6.8 102780 73
2004-02-18 08:07:04 51°10.626 2°41.762 7.8 72 6.7 102770 73
2004-02-18 08:07:09 51°10.622 2°41.732 7 65 6.7 102770 73
2004-02-18 08:07:14 51°10.616 2°41.701 7.5 78 6.7 102780 73
2004-02-18 08:07:18 51°10.612 2°41.676 6.6 73 6.7 102780 73
2004-02-18 08:07:24 51°10.606 2°41.64 8 77 6.7 102780 73
2004-02-18 08:07:28 51°10.602 2°41.616 7.3 72 6.7 102780 73
2004-02-18 08:07:34 51°10.596 2°41.58 7.6 72 6.7 102780 73
2004-02-18 08:07:39 51°10.591 2°41.549 6.9 80 6.7 102780 73
2004-02-18 08:07:44 51°10.587 2°41.519 7.3 73 6.7 102770 73
2004-02-18 08:07:49 51°10.581 2°41.488 8 78 6.7 102770 73
2004-02-18 08:07:54 51°10.576 2°41.458 6.3 74 6.7 102780 73
2004-02-18 08:07:59 51°10.572 2°41.427 8.2 79 6.7 102780 73
2004-02-18 08:08:04 51°10.566 2°41.397 6.5 75 6.7 102780 73
2004-02-18 08:08:09 51°10.561 2°41.367 9.4 85 6.7 102780 73
2004-02-18 08:08:14 51°10.555 2°41.337 7.5 77 6.7 102770 73
2004-02-18 08:08:19 51°10.551 2°41.306 7.9 65 6.7 102770 73
2004-02-18 08:08:24 51°10.545 2°41.276 6.4 79 6.7 102780 73
2004-02-18 08:08:28 51°10.541 2°41.252 7.1 70 6.7 102780 73
2004-02-18 08:08:34 51°10.535 2°41.216 8.7 82 6.7 102780 73
2004-02-18 08:08:39 51°10.529 2°41.186 6.7 74 6.7 102780 73
2004-02-18 08:08:44 51°10.524 2°41.155 8.5 81 6.8 102780 73
2004-02-18 08:08:49 51°10.518 2°41.125 9.7 84 6.8 102780 73
2004-02-18 08:08:54 51°10.513 2°41.096 8.4 85 6.8 102780 73
2004-02-18 08:08:58 51°10.509 2°41.071 9 82 6.8 102780 73
2004-02-18 08:09:04 51°10.503 2°41.034 7.3 78 6.7 102770 72
2004-02-18 08:09:09 51°10.497 2°41.004 6.6 73 6.7 102770 72
2004-02-18 08:09:14 51°10.492 2°40.973 8.1 73 6.7 102770 72
2004-02-18 08:09:18 51°10.488 2°40.949 8.4 78 6.7 102770 72
2004-02-18 08:09:24 51°10.481 2°40.913 9.6 81 6.7 102770 72
2004-02-18 08:09:29 51°10.477 2°40.882 8 79 6.7 102770 72
2004-02-18 08:09:34 51°10.472 2°40.851 6.9 71 6.8 102780 73
2004-02-18 08:09:38 51°10.467 2°40.827 8.8 82 6.8 102780 73
2004-02-18 08:09:44 51°10.462 2°40.79 6.6 82 6.8 102770 72
2004-02-18 08:09:49 51°10.455 2°40.76 8.2 83 6.8 102770 72
2004-02-18 08:09:54 51°10.449 2°40.73 6.4 71 6.8 102770 72
2004-02-18 08:09:58 51°10.445 2°40.705 9.3 83 6.8 102770 72
2004-02-18 08:10:04 51°10.439 2°40.669 8 81 6.8 102770 72
2004-02-18 08:10:09 51°10.434 2°40.638 6.7 72 6.8 102770 72
2004-02-18 08:10:14 51°10.428 2°40.608 8.3 80 6.8 102780 72
2004-02-18 08:10:19 51°10.423 2°40.577 6.7 78 6.8 102780 72
2004-02-18 08:10:24 51°10.418 2°40.546 6.8 76 6.8 102780 72
2004-02-18 08:10:28 51°10.414 2°40.522 8.2 81 6.8 102780 72
2004-02-18 08:10:34 51°10.407 2°40.486 6.5 81 6.8 102780 72
2004-02-18 08:10:38 51°10.402 2°40.461 9.1 85 6.8 102780 72
2004-02-18 08:10:44 51°10.395 2°40.425 5.9 76 6.7 102780 72
2004-02-18 08:10:48 51°10.392 2°40.401 7.8 76 6.7 102780 72
2004-02-18 08:10:54 51°10.384 2°40.365 7 76 6.8 102770 72
2004-02-18 08:10:59 51°10.38 2°40.334 6.3 69 6.8 102770 72
2004-02-18 08:11:04 51°10.374 2°40.303 6.1 80 6.7 102780 72
2004-02-18 08:11:08 51°10.369 2°40.279 6.7 63 6.7 102780 72
2004-02-18 08:11:14 51°10.363 2°40.242 7.1 68 6.7 102770 72
2004-02-18 08:11:18 51°10.358 2°40.218 8 80 6.7 102770 72
2004-02-18 08:11:24 51°10.352 2°40.182 6.5 74 6.8 102780 72
2004-02-18 08:11:28 51°10.348 2°40.157 7.4 77 6.8 102780 72
2004-02-18 08:11:34 51°10.342 2°40.121 6.8 67 6.8 102780 72
2004-02-18 08:11:39 51°10.336 2°40.09 8.1   6.8 102780 72
2004-02-18 08:11:44 51°10.331 2°40.059 7.5 72 6.8 102770 73
2004-02-18 08:11:49 51°10.326 2°40.029 7.1 74 6.8 102770 73
2004-02-18 08:11:54 51°10.321 2°39.998 8.1 81 6.8 102770 72
2004-02-18 08:11:59 51°10.316 2°39.967 6.4 76 6.8 102770 72
2004-02-18 08:12:04 51°10.311 2°39.936 6.1 69 6.8 102780 73
2004-02-18 08:12:08 51°10.305 2°39.912 8.9 82 6.8 102780 73
2004-02-18 08:12:14 51°10.299 2°39.876 6 79 6.8 102780 73
2004-02-18 08:12:18 51°10.294 2°39.852 7.2 67 6.8 102780 73
2004-02-18 08:12:24 51°10.288 2°39.815 6.5 72 6.8 102780 73
2004-02-18 08:12:29 51°10.281 2°39.785 7.1 72 6.8 102780 73
2004-02-18 08:12:33 51°10.277 2°39.76 7.5 74 6.8 102780 73
2004-02-18 08:12:40 51°10.269 2°39.718 8.5 65 6.8 102780 73
2004-02-18 08:12:44 51°10.266 2°39.693 7.6 79 6.8 102790 73
2004-02-18 08:12:49 51°10.261 2°39.662 8 70 6.8 102790 73
2004-02-18 08:12:54 51°10.256 2°39.631 7.7 71 6.8 102790 73
2004-02-18 08:12:59 51°10.251 2°39.601 7.3 72 6.8 102790 73
2004-02-18 08:13:04 51°10.246 2°39.57 8 75 6.8 102780 73
2004-02-18 08:13:08 51°10.242 2°39.546 6.9 77 6.8 102780 73
2004-02-18 08:13:14 51°10.236 2°39.509 7.2 79 6.8 102780 73
2004-02-18 08:13:19 51°10.23 2°39.478 7.3 67 6.8 102780 73
2004-02-18 08:13:24 51°10.226 2°39.448 7 75 6.8 102780 72
2004-02-18 08:13:28 51°10.221 2°39.423 7.7 79 6.8 102780 72
2004-02-18 08:13:34 51°10.215 2°39.387 6.7 76 6.8 102780 72
2004-02-18 08:13:39 51°10.21 2°39.357 8.4 79 6.8 102780 72
2004-02-18 08:13:44 51°10.204 2°39.327 6.2 79 6.8 102780 72
2004-02-18 08:13:49 51°10.2 2°39.296 7.7 63 6.8 102780 72
2004-02-18 08:13:54 51°10.193 2°39.267 8.6 66 6.8 102780 72
2004-02-18 08:14:00 51°10.187 2°39.23 8.1 78 6.8 102780 72
2004-02-18 08:14:04 51°10.182 2°39.206 9.8 84 6.8 102780 72
2004-02-18 08:14:09 51°10.178 2°39.176 8 80 6.8 102780 72
2004-02-18 08:14:14 51°10.172 2°39.146 7.2 74 6.8 102780 73
2004-02-18 08:14:18 51°10.169 2°39.122 8.4 80 6.8 102780 73
2004-02-18 08:14:24 51°10.161 2°39.086 9.2 81 6.8 102780 73
2004-02-18 08:14:29 51°10.158 2°39.054 7.6 80 6.8 102780 73
2004-02-18 08:14:34 51°10.152 2°39.025 7.2 76 6.8 102770 72
2004-02-18 08:14:38 51°10.148 2°39.001 9.3 83 6.8 102770 72
2004-02-18 08:14:44 51°10.142 2°38.965 7 81 6.8 102780 73
2004-02-18 08:14:48 51°10.138 2°38.94 9.2 83 6.8 102780 73
2004-02-18 08:14:54 51°10.131 2°38.904 10.1 90 6.8 102780 73
2004-02-18 08:14:58 51°10.128 2°38.88 6.4 73 6.8 102780 73
2004-02-18 08:15:04 51°10.121 2°38.844 9.2 82 6.8 102770 72
2004-02-18 08:15:08 51°10.118 2°38.819 6.6 80 6.8 102770 72
2004-02-18 08:15:14 51°10.11 2°38.783 6.9 77 6.8 102770 72
2004-02-18 08:15:19 51°10.106 2°38.753 7.4 59 6.8 102770 72
2004-02-18 08:15:24 51°10.1 2°38.723 6.8 72 6.8 102780 72
2004-02-18 08:15:28 51°10.096 2°38.698 8 77 6.8 102780 72
2004-02-18 08:15:34 51°10.09 2°38.662 9.3 87 6.8 102780 72
2004-02-18 08:15:39 51°10.085 2°38.631 8.2 86 6.8 102780 72
2004-02-18 08:15:44 51°10.08 2°38.601 7.1 79 6.8 102780 73
2004-02-18 08:15:49 51°10.074 2°38.572 6.4 69 6.8 102780 73
2004-02-18 08:15:54 51°10.07 2°38.541 6.4 72 6.8 102780 73
2004-02-18 08:15:58 51°10.065 2°38.517 9.1 83 6.8 102780 73
2004-02-18 08:16:04 51°10.059 2°38.481 6 73 6.8 102790 72
2004-02-18 08:16:08 51°10.055 2°38.457 7.1 73 6.8 102790 72
2004-02-18 08:16:14 51°10.049 2°38.421 7.4 70 6.8 102780 73
2004-02-18 08:16:20 51°10.042 2°38.384 6.9 81 6.8 102780 73
2004-02-18 08:16:24 51°10.038 2°38.36 6.5 71 6.8 102780 73
2004-02-18 08:16:29 51°10.032 2°38.329 7.2 70 6.8 102780 73
2004-02-18 08:16:33 51°10.029 2°38.305 7.1 78 6.8 102770 73
2004-02-18 08:16:38 51°10.022 2°38.276 8.8 70 6.8 102770 73
2004-02-18 08:16:44 51°10.016 2°38.238 9.2 83 6.8 102770 73
2004-02-18 08:16:49 51°10.011 2°38.209 9.1 84 6.8 102770 73
2004-02-18 08:16:54 51°10.005 2°38.178 6.6 76 6.8 102770 73
2004-02-18 08:16:59 51°10 2°38.147 6.8 78 6.8 102770 73
2004-02-18 08:17:04 51°9.996 2°38.117 8 78 6.8 102780 73
2004-02-18 08:17:09 51°9.989 2°38.087 7.9 81 6.8 102780 73
2004-02-18 08:17:13 51°9.987 2°38.061 6.8 68 6.8 102780 73
2004-02-18 08:17:19 51°9.98 2°38.025 7.9 68 6.8 102780 73
2004-02-18 08:17:24 51°9.976 2°37.995 7.2 74 6.8 102780 73
2004-02-18 08:17:28 51°9.971 2°37.971 8.8 66 6.8 102780 73
2004-02-18 08:17:34 51°9.965 2°37.934 6.5 75 6.8 102780 73
2004-02-18 08:17:38 51°9.961 2°37.91 7.3 78 6.8 102780 73
2004-02-18 08:17:44 51°9.954 2°37.874 7.3 70 6.8 102790 73
2004-02-18 08:17:48 51°9.951 2°37.849 7.2 68 6.8 102790 73
2004-02-18 08:17:54 51°9.944 2°37.813 7.2 71 6.8 102780 73
2004-02-18 08:17:59 51°9.938 2°37.782 7.3 76 6.8 102780 73
2004-02-18 08:18:04 51°9.933 2°37.752 6.8 74 6.8 102780 73
2004-02-18 08:18:09 51°9.927 2°37.722 6.1 77 6.8 102780 73
2004-02-18 08:18:14 51°9.923 2°37.692 7.3 69 6.8 102780 73
2004-02-18 08:18:19 51°9.918 2°37.661 7.7 79 6.8 102780 73
2004-02-18 08:18:24 51°9.914 2°37.631 7.1 72 6.8 102780 73
2004-02-18 08:18:29 51°9.911 2°37.6 7.7 78 6.8 102780 73
2004-02-18 08:18:34 51°9.906 2°37.57 8.6 66 6.8 102780 73
2004-02-18 08:18:39 51°9.903 2°37.539 7.3   6.8 102780 73
2004-02-18 08:18:44 51°9.898 2°37.508 7.4 76 6.8 102780 73
2004-02-18 08:18:49 51°9.895 2°37.477 7.6 72 6.8 102780 73
2004-02-18 08:18:54 51°9.891 2°37.447 7.8 76 6.8 102780 73
2004-02-18 08:18:59 51°9.886 2°37.416 8.3 70 6.8 102780 73
2004-02-18 08:19:04 51°9.883 2°37.384 7 75 6.8 102780 73
2004-02-18 08:19:08 51°9.879 2°37.36 8.5 71 6.8 102780 73
2004-02-18 08:19:14 51°9.875 2°37.323 8 72 6.8 102780 73
2004-02-18 08:19:19 51°9.872 2°37.292 7.5 66 6.8 102780 73
2004-02-18 08:19:24 51°9.868 2°37.261 7.7 74 6.8 102780 73
2004-02-18 08:19:29 51°9.864 2°37.231 7.6 72 6.8 102780 73
2004-02-18 08:19:34 51°9.861 2°37.2 8.2 79 6.8 102780 73
2004-02-18 08:19:38 51°9.858 2°37.176 8.4 67 6.8 102780 73
2004-02-18 08:19:44 51°9.854 2°37.139 8.3 64 6.8 102780 73
2004-02-18 08:19:48 51°9.851 2°37.115 6.8 72 6.8 102780 73
2004-02-18 08:19:54 51°9.846 2°37.078 7.6 73 6.8 102780 73
2004-02-18 08:19:59 51°9.843 2°37.048 7.6 70 6.8 102780 73
2004-02-18 08:20:04 51°9.839 2°37.017 7.9 80 6.8 102780 73
2004-02-18 08:20:08 51°9.836 2°36.993 7.2 78 6.8 102780 73
2004-02-18 08:20:14 51°9.832 2°36.957 7.2 72 6.8 102780 73
2004-02-18 08:20:18 51°9.829 2°36.933 7.2 73 6.8 102780 73
2004-02-18 08:20:24 51°9.824 2°36.898 6.9 79 6.8 102780 73
2004-02-18 08:20:28 51°9.821 2°36.876 7.7 85 6.8 102780 73
2004-02-18 08:20:32 51°9.818 2°36.857 6.9 89 6.8 102770 73
2004-02-18 08:20:38 51°9.813 2°36.831 5.7 102 6.8 102770 73
2004-02-18 08:20:44 51°9.807 2°36.809 5.5 113 6.8 102820 73
2004-02-18 08:20:49 51°9.8 2°36.793 6.4 117 6.8 102820 73
2004-02-18 08:20:54 51°9.795 2°36.778 5.9 124 6.8 102820 73
2004-02-18 08:20:59 51°9.789 2°36.765 6.3 130 6.8 102820 73
2004-02-18 08:21:04 51°9.784 2°36.754 5.3 120 6.8 102830 73
2004-02-18 08:21:09 51°9.779 2°36.744 6.6 128 6.8 102830 73
2004-02-18 08:21:14 51°9.776 2°36.734 5.9 137 6.8 102830 73
2004-02-18 08:21:18 51°9.773 2°36.728 6.3 132 6.8 102830 73
2004-02-18 08:21:24 51°9.769 2°36.72 5.4 141 6.9 102830 73
2004-02-18 08:21:29 51°9.766 2°36.715 5.9 145 6.9 102830 73
2004-02-18 08:21:34 51°9.764 2°36.71 6.3 149 6.8 102830 73
2004-02-18 08:21:39 51°9.76 2°36.706 6 146 6.8 102830 73
2004-02-18 08:21:44 51°9.757 2°36.701 7.2 148 6.9 102820 73
2004-02-18 08:21:48 51°9.755 2°36.698 6.6 144 6.9 102820 73
2004-02-18 08:21:54 51°9.75 2°36.692 6.4 144 6.9 102830 73
2004-02-18 08:21:58 51°9.747 2°36.688 6.7 141 6.9 102830 73
2004-02-18 08:22:04 51°9.743 2°36.682 6.6 141 6.9 102830 73
2004-02-18 08:22:08 51°9.741 2°36.678 6.6 146 6.9 102830 73
2004-02-18 08:22:14 51°9.737 2°36.674 7.4 143 6.8 102830 73
2004-02-18 08:22:19 51°9.735 2°36.672 8 138 6.8 102830 73
2004-02-18 08:22:24 51°9.734 2°36.67 8.2 136 6.8 102830 73
2004-02-18 08:22:29 51°9.733 2°36.67 8 134 6.8 102830 73
2004-02-18 08:22:34 51°9.732 2°36.67 8.4 135 6.8 102830 73
2004-02-18 08:22:39 51°9.732 2°36.672 8.9 137 6.8 102830 73
2004-02-18 08:22:44 51°9.731 2°36.673 8.7 137 6.9 102820 73
2004-02-18 08:22:49 51°9.73 2°36.674 8.2 140 6.9 102820 73
2004-02-18 08:22:54 51°9.729 2°36.674 7.6 141 6.8 102820 73
2004-02-18 08:22:59 51°9.729 2°36.675 7.9 137 6.8 102820 73
2004-02-18 08:23:04 51°9.728 2°36.676 7.6 137 6.8 102820 73
2004-02-18 08:23:08 51°9.727 2°36.676 7.4 140 6.8 102820 73
2004-02-18 08:23:14 51°9.726 2°36.677 7.4 138 6.9 102820 73
2004-02-18 08:23:19 51°9.724 2°36.677 7.4 136 6.9 102820 73
2004-02-18 08:23:24 51°9.723 2°36.677 7.5 135 6.9 102830 73
2004-02-18 08:23:28 51°9.722 2°36.677 6.8 136 6.9 102830 73
2004-02-18 08:23:34 51°9.72 2°36.676 6.6 141 6.9 102830 73
2004-02-18 08:23:39 51°9.719 2°36.675 6.4   6.9 102830 73
2004-02-18 08:23:44 51°9.718 2°36.675 7 143 6.9 102820 73
2004-02-18 08:23:48 51°9.717 2°36.675 7.2 142 6.9 102820 73
2004-02-18 08:23:54 51°9.715 2°36.673 6.9 136 6.9 102820 74
2004-02-18 08:23:58 51°9.714 2°36.672 6.2 130 6.9 102820 74
2004-02-18 08:24:04 51°9.713 2°36.671 7.5 130 6.9 102830 74
2004-02-18 08:24:09 51°9.711 2°36.67 7.4 136 6.9 102830 74
2004-02-18 08:24:13 51°9.71 2°36.669 7.3 128 6.9 102830 74
2004-02-18 08:24:19 51°9.709 2°36.667 7.5 132 6.9 102830 74
2004-02-18 08:24:24 51°9.708 2°36.666 7.4 129 6.9 102820 74
2004-02-18 08:24:29 51°9.706 2°36.664 6.5 124 6.9 102820 74
2004-02-18 08:24:34 51°9.705 2°36.663 6.6 124 6.9 102820 74
2004-02-18 08:24:39 51°9.704 2°36.661 6.3 129 6.9 102820 74
2004-02-18 08:24:44 51°9.703 2°36.66 7.2 123 6.9 102820 74
2004-02-18 08:24:48 51°9.702 2°36.658 6.5 128 6.9 102820 74
2004-02-18 08:24:53 51°9.701 2°36.656 6.8 129 6.9 102830 74
2004-02-18 08:25:00 51°9.699 2°36.654 6.6 128 6.9 102830 74
2004-02-18 08:25:04 51°9.698 2°36.652 7.1 129 6.9 102830 74
2004-02-18 08:25:08 51°9.697 2°36.651 7.8 125 6.9 102830 74
2004-02-18 08:25:14 51°9.695 2°36.649 7.9 126 6.9 102820 74
2004-02-18 08:25:18 51°9.694 2°36.647 7 136 6.9 102820 74
2004-02-18 08:25:24 51°9.693 2°36.645 7.3 134 6.9 102830 74
2004-02-18 08:25:28 51°9.692 2°36.644 7.1 124 6.9 102830 74
2004-02-18 08:25:34 51°9.69 2°36.641 7 127 6.9 102820 74
2004-02-18 08:25:39 51°9.689 2°36.639 8 45 6.9 102820 74
2004-02-18 08:25:44 51°9.688 2°36.637 7.7 134 6.9 102820 74
2004-02-18 08:25:48 51°9.687 2°36.636 8.1 123 6.9 102820 74
2004-02-18 08:25:54 51°9.686 2°36.633 7.4 121 6.9 102830 74
2004-02-18 08:25:59 51°9.684 2°36.631 7.7 127 6.9 102830 74
2004-02-18 08:26:04 51°9.684 2°36.629 6.5 126 6.9 102820 74
2004-02-18 08:26:08 51°9.682 2°36.628 7.6 120 6.9 102820 74
2004-02-18 08:26:14 51°9.68 2°36.625 6.8 122 6.9 102820 74
2004-02-18 08:26:18 51°9.679 2°36.624 7 125 6.9 102820 74
2004-02-18 08:26:24 51°9.678 2°36.621 6.6 122 6.9 102820 74
2004-02-18 08:26:29 51°9.677 2°36.619 6.8 118 6.9 102820 74
2004-02-18 08:26:34 51°9.676 2°36.617 6.3 121 6.9 102830 74
2004-02-18 08:26:38 51°9.675 2°36.616 7.1 120 6.9 102830 74
2004-02-18 08:26:44 51°9.674 2°36.614 7.8 128 6.9 102820 74
2004-02-18 08:26:49 51°9.672 2°36.612 8.4 126 6.9 102820 74
2004-02-18 08:26:53 51°9.671 2°36.611 7.7 124 6.9 102820 75
2004-02-18 08:26:59 51°9.67 2°36.609 7.8 117 6.9 102820 75
2004-02-18 08:27:04 51°9.669 2°36.607 7.1 129 6.9 102830 74
2004-02-18 08:27:09 51°9.667 2°36.605 8 124 6.9 102830 74
2004-02-18 08:27:14 51°9.666 2°36.604 7.8 122 6.9 102830 74
2004-02-18 08:27:19 51°9.665 2°36.602 7.4 124 6.9 102830 74
2004-02-18 08:27:24 51°9.664 2°36.601 7.6 120 6.9 102820 74
2004-02-18 08:27:29 51°9.663 2°36.599 6.8 123 6.9 102820 74
2004-02-18 08:27:34 51°9.662 2°36.598 6.9 127 6.9 102830 74
2004-02-18 08:27:38 51°9.661 2°36.597 8.6 128 6.9 102830 74
2004-02-18 08:27:44 51°9.66 2°36.594 7.1 123 6.9 102820 74
2004-02-18 08:27:48 51°9.659 2°36.593 7.9 124 6.9 102820 74
2004-02-18 08:27:54 51°9.658 2°36.592 8.5 124 6.9 102820 74
2004-02-18 08:27:58 51°9.657 2°36.591 8.1 121 6.9 102820 74
2004-02-18 08:28:04 51°9.656 2°36.589 7.8 124 6.9 102820 74
2004-02-18 08:28:08 51°9.655 2°36.588 8 122 6.9 102820 74
2004-02-18 08:28:14 51°9.654 2°36.586 7.4 122 6.9 102830 74
2004-02-18 08:28:18 51°9.653 2°36.585 7.7 123 6.9 102830 74
2004-02-18 08:28:24 51°9.652 2°36.583 8.4 122 6.9 102820 74
2004-02-18 08:28:28 51°9.651 2°36.582 8.4 121 6.9 102820 74
2004-02-18 08:28:34 51°9.65 2°36.581 8.1 119 6.9 102820 74
2004-02-18 08:28:38 51°9.649 2°36.579 7.8 121 6.9 102820 74
2004-02-18 08:28:44 51°9.648 2°36.578 7.8 122 6.9 102830 74
2004-02-18 08:28:48 51°9.647 2°36.577 7.7 119 6.9 102830 74
2004-02-18 08:28:54 51°9.646 2°36.575 7.8 120 6.9 102810 74
2004-02-18 08:28:58 51°9.645 2°36.574 7.8 119 6.9 102810 74
2004-02-18 08:29:04 51°9.644 2°36.572 7.1 123 6.9 102820 74
2004-02-18 08:29:09 51°9.643 2°36.571 8.6 121 6.9 102820 74
2004-02-18 08:29:13 51°9.642 2°36.57 8.9 123 6.9 102810 74
2004-02-18 08:29:19 51°9.641 2°36.569 7.5 116 6.9 102810 74
2004-02-18 08:29:24 51°9.64 2°36.567 7.8 124 6.9 102820 74
2004-02-18 08:29:29 51°9.639 2°36.566 7.9 123 6.9 102820 74
2004-02-18 08:29:34 51°9.638 2°36.565 7.3 121 6.9 102820 74
2004-02-18 08:29:38 51°9.637 2°36.564 7.8 124 6.9 102820 74
2004-02-18 08:29:44 51°9.636 2°36.562 7 119 6.9 102810 74
2004-02-18 08:29:48 51°9.635 2°36.561 8.1 116 6.9 102810 74
2004-02-18 08:29:53 51°9.634 2°36.56 7.1 117 6.9 102820 73
2004-02-18 08:29:59 51°9.633 2°36.558 7.8 115 6.9 102820 73
2004-02-18 08:30:04 51°9.632 2°36.557 8.2 119 6.9 102820 73
2004-02-18 08:30:09 51°9.631 2°36.556 8.7 118 6.9 102820 73
2004-02-18 08:30:14 51°9.63 2°36.555 7.5 117 6.9 102820 74
2004-02-18 08:30:19 51°9.629 2°36.554 7.4 115 6.9 102820 74
2004-02-18 08:30:24 51°9.628 2°36.552 7.2 119 6.9 102830 74
2004-02-18 08:30:28 51°9.627 2°36.551 8.1 118 6.9 102830 74
2004-02-18 08:30:34 51°9.627 2°36.55 7.7 119 6.9 102820 74
2004-02-18 08:30:38 51°9.625 2°36.549 7.7 112 6.9 102820 74
2004-02-18 08:30:44 51°9.624 2°36.547 7.2 119 6.9 102830 74
2004-02-18 08:30:48 51°9.624 2°36.546 7.8 113 6.9 102830 74
2004-02-18 08:30:54 51°9.623 2°36.545 7.1 116 6.9 102820 74
2004-02-18 08:30:59 51°9.622 2°36.543 7 118 6.9 102820 74
2004-02-18 08:31:04 51°9.621 2°36.542 7.1 121 6.9 102830 74
2004-02-18 08:31:09 51°9.62 2°36.541 7.7 119 6.9 102830 74
2004-02-18 08:31:14 51°9.618 2°36.54 7.2 114 6.9 102810 74
2004-02-18 08:31:19 51°9.618 2°36.539 7 116 6.9 102810 74
2004-02-18 08:31:24 51°9.617 2°36.538 6.3 117 6.9 102820 74
2004-02-18 08:31:28 51°9.616 2°36.537 7.5 112 6.9 102820 74
2004-02-18 08:31:34 51°9.615 2°36.536 7.3 120 6.9 102830 74
2004-02-18 08:31:39 51°9.614 2°36.535 7.8 116 6.9 102830 74
2004-02-18 08:31:44 51°9.613 2°36.534 7.2 117 6.9 102820 74
2004-02-18 08:31:49 51°9.612 2°36.533 6.9 109 6.9 102820 74
2004-02-18 08:31:54 51°9.612 2°36.532 7.5 117 6.9 102830 75
2004-02-18 08:31:58 51°9.611 2°36.531 8.7 115 6.9 102830 75
2004-02-18 08:32:04 51°9.609 2°36.53 8.4 117 6.9 102820 75
2004-02-18 08:32:09 51°9.609 2°36.529 8.2 117 6.9 102820 75
2004-02-18 08:32:13 51°9.608 2°36.528 7.9 112 6.9 102810 75
2004-02-18 08:32:19 51°9.607 2°36.527 7.5 113 6.9 102810 75
2004-02-18 08:32:24 51°9.606 2°36.527 7.4 112 6.9 102820 75
2004-02-18 08:32:28 51°9.605 2°36.526 7.6 114 6.9 102820 75
2004-02-18 08:32:34 51°9.604 2°36.525 7.2 112 6.9 102820 75
2004-02-18 08:32:39 51°9.604 2°36.524 7.5 109 6.9 102820 75
2004-02-18 08:32:44 51°9.603 2°36.523 7.6 107 6.9 102820 75
2004-02-18 08:32:48 51°9.602 2°36.522 7.2 106 6.9 102820 75
2004-02-18 08:32:54 51°9.601 2°36.521 7.5 113 6.9 102820 75
2004-02-18 08:32:58 51°9.6 2°36.52 8 111 6.9 102820 75
2004-02-18 08:33:04 51°9.599 2°36.519 7.3 113 6.9 102820 75
2004-02-18 08:33:09 51°9.598 2°36.519 6.6 113 6.9 102820 75
2004-02-18 08:33:14 51°9.598 2°36.518 7.1 109 7 102820 75
2004-02-18 08:33:18 51°9.597 2°36.518 8.3 113 7 102820 75
2004-02-18 08:33:24 51°9.596 2°36.517 8.6 107 7 102820 75
2004-02-18 08:33:29 51°9.595 2°36.516 8.1 111 7 102820 75
2004-02-18 08:33:33 51°9.594 2°36.516 7.6 110 7 102820 76
2004-02-18 08:33:39 51°9.593 2°36.515 9 113 7 102820 76
2004-02-18 08:33:44 51°9.592 2°36.514 8.6 116 6.9 102820 76
2004-02-18 08:33:48 51°9.591 2°36.514 9.5 115 6.9 102820 76
2004-02-18 08:33:54 51°9.59 2°36.513 9.1 113 7 102810 76
2004-02-18 08:33:59 51°9.589 2°36.512 7.5 118 7 102810 76
2004-02-18 08:34:04 51°9.588 2°36.511 7.9 117 6.9 102820 75
2004-02-18 08:34:08 51°9.587 2°36.511 7.5 118 6.9 102820 75
2004-02-18 08:34:14 51°9.586 2°36.51 8 106 6.9 102820 75
2004-02-18 08:34:18 51°9.585 2°36.51 7.3 110 6.9 102820 75
2004-02-18 08:34:24 51°9.584 2°36.509 7.5 112 7 102810 75
2004-02-18 08:34:29 51°9.583 2°36.509 7.4 117 7 102810 75
2004-02-18 08:34:34 51°9.582 2°36.508 8.1 103 6.9 102830 76
2004-02-18 08:34:39 51°9.582 2°36.507 6.2   6.9 102830 76
2004-02-18 08:34:44 51°9.58 2°36.507 8 113 6.9 102820 75
2004-02-18 08:34:49 51°9.579 2°36.506 7.8 115 6.9 102820 75
2004-02-18 08:34:54 51°9.578 2°36.505 7.7 112 6.9 102820 76
2004-02-18 08:34:59 51°9.577 2°36.505 7.3 109 6.9 102820 76
2004-02-18 08:35:04 51°9.577 2°36.504 7.9 112 7 102820 76
2004-02-18 08:35:08 51°9.576 2°36.504 7.1 107 7 102820 76
2004-02-18 08:35:14 51°9.575 2°36.503 7.1 118 7 102820 76
2004-02-18 08:35:20 51°9.574 2°36.503 7.9 112 7 102820 76
2004-02-18 08:35:24 51°9.574 2°36.502 8.7 108 7 102820 76
2004-02-18 08:35:29 51°9.573 2°36.502 8.4 108 7 102820 76
2004-02-18 08:35:34 51°9.572 2°36.501 7.2 113 7 102820 76
2004-02-18 08:35:38 51°9.572 2°36.501 8.1 114 7 102820 76
2004-02-18 08:35:44 51°9.571 2°36.5 7.7 111 7 102820 76
2004-02-18 08:35:49 51°9.57 2°36.5 7.9 112 7 102820 76
2004-02-18 08:35:54 51°9.569 2°36.499 8.5 104 7 102810 76
2004-02-18 08:35:59 51°9.568 2°36.498 7.8 109 7 102810 76
2004-02-18 08:36:04 51°9.566 2°36.498 9.2 103 7 102820 76